Beckenham, Australia

2:10 PM AWST on September 25, 2017 (GMT +0800)
Thornlie | | Change Station

Elev 56 ft 32.06 °S, 115.94 °E | Updated 1 second ago

Mostly Cloudy
Mostly Cloudy
61.7 °F
Feels Like 61.7 °F
N
1.8
Wind Variable Wind from NNE
Gusts 2.5 mph

Today
High -- | Low -- °F
--% Chance of Precip.
Yesterday
High -- | Low -- °F
Precip. -- in
Pressure 29.62 in
Visibility 6.2 miles
Clouds Few 2600 ft
Mostly Cloudy 7500 ft
Dew Point 36 °F
Humidity 38%
Rainfall 0.06 in
Snow Depth Not available.
6:02 AM 6:14 PM
Waxing Crescent, 24% visible
METAR YPPH 250600Z 20007KT 9999 FEW026 BKN075 16/08 Q1003 TEMPO 0600/0700 4000 SHRA BKN010 INTER 0700/0900 4000 SHRA BKN010
Pressure 29.62 in
Visibility 6.2 miles
Clouds Few 2600 ft
Mostly Cloudy 7500 ft
Dew Point 36 °F
Humidity 38%
Rainfall 0.06 in
Snow Depth Not available.
6:02 AM 6:14 PM
Waxing Crescent, 24% visible
METAR YPPH 250600Z 20007KT 9999 FEW026 BKN075 16/08 Q1003 TEMPO 0600/0700 4000 SHRA BKN010 INTER 0700/0900 4000 SHRA BKN010

Get Severe Weather Alerts

Thanks for signing up!

Be on the lookout for a verification email in your inbox.

You'll start receiving the daily forecast at 6 AM.

×

10-Day Weather Forecast

×

Almanac

Astronomy

Sep. 25, 2017 Rise Set
Actual Time
Civil Twilight
Nautical Twilight
Astronomical Twilight
Moon
Length of Visible Light
Length of Day
Tomorrow will be .
, % of the Moon is Illuminated

Today's Extremes

Country Highs Country Lows

Community

WunderPhotos

Category 6

Welcome to Category 6. This is the collective home for Weather Underground's featured writeups by Dr. Jeff Masters (right), Bob Henson (left), Chris Burt, and other regular contributors.

Nearby

Air Quality

  Air Quality AQ Index Pollutant
Not available.

Snow Depth

Station Depth Elevation

Earthquake Activity

City Distance Mag. Time & Date
Minimum magnitude displayed is 2.5.

Coastal Water Temperatures

Place Temperature

Stations

Nearby Weather Stations

Station Location Temp. Windchill Dew Point Humidity Wind Precip. Elev Updated Type